Anchorage/Merrill Field, Alaska
Current Conditions -  °F | °C
As of 3:53 AM on Thursday 30 Oct 2014 (Local Time) from PAMR Reporting Station
Overcast Overcast  
Wind Chill: -4°   Ceiling: 7000
Heat Index: -4°   Visibility: 10mi
Dew Point: -8°   Wind: 0mph
Humidity: 75%   Direction: NA
Pressure: 29.66"   Gusts: NA
Location:  61.21°N, 149.85°W
Report Text: PAMR 301153Z 00000KT 10SM BKN070 BKN120 OVC200 M04/M08 A2966 RMK AO2 SLP045 T10391078 11028 21039 57009 $
Loading
Personal Weather Stations






























Interactive Weather Map
Tropical Storm Tracking
New forecast layout! Learn more

10-Day Weather Forecast

Advertisements
Track Severe Weather on mobile